sensor_id;sensor_type;location;lat;lon;timestamp;pressure;altitude;pressure_sealevel;temperature;humidity
73105;BME280;61296;50.526;30.792;2023-04-22T00:01:51;98817.81;;;7.53;78.71
73105;BME280;61296;50.526;30.792;2023-04-22T00:17:10;98825.13;;;7.45;78.37
73105;BME280;61296;50.526;30.792;2023-04-22T00:32:29;98932.00;;;7.86;78.22
73105;BME280;61296;50.526;30.792;2023-04-22T00:47:49;98850.44;;;7.09;77.48
73105;BME280;61296;50.526;30.792;2023-04-22T01:03:08;98916.84;;;7.36;77.36
73105;BME280;61296;50.526;30.792;2023-04-22T01:18:28;98847.25;;;6.80;75.23
73105;BME280;61296;50.526;30.792;2023-04-22T01:33:49;98820.56;;;6.47;75.22
73105;BME280;61296;50.526;30.792;2023-04-22T01:49:08;98789.25;;;5.95;74.17
73105;BME280;61296;50.526;30.792;2023-04-22T02:04:27;98827.22;;;6.04;73.78
73105;BME280;61296;50.526;30.792;2023-04-22T02:19:49;98766.94;;;5.51;73.69
73105;BME280;61296;50.526;30.792;2023-04-22T02:35:10;98834.84;;;5.75;73.21
73105;BME280;61296;50.526;30.792;2023-04-22T02:50:29;98937.25;;;6.27;72.86
73105;BME280;61296;50.526;30.792;2023-04-22T03:05:49;98945.47;;;6.08;73.41
73105;BME280;61296;50.526;30.792;2023-04-22T03:21:09;98936.13;;;6.09;72.96
73105;BME280;61296;50.526;30.792;2023-04-22T03:36:29;98952.44;;;6.67;69.78
73105;BME280;61296;50.526;30.792;2023-04-22T03:51:50;98949.88;;;7.23;66.96
73105;BME280;61296;50.526;30.792;2023-04-22T04:07:14;98855.59;;;7.44;63.49
73105;BME280;61296;50.526;30.792;2023-04-22T04:22:40;98920.78;;;8.65;59.88
73105;BME280;61296;50.526;30.792;2023-04-22T04:38:01;98994.28;;;9.93;55.67
73105;BME280;61296;50.526;30.792;2023-04-22T04:53:23;98980.47;;;10.73;52.06
73105;BME280;61296;50.526;30.792;2023-04-22T05:08:42;98923.53;;;10.94;49.80
73105;BME280;61296;50.526;30.792;2023-04-22T05:24:04;99011.59;;;11.94;47.32
73105;BME280;61296;50.526;30.792;2023-04-22T05:39:24;98936.28;;;12.26;45.38
73105;BME280;61296;50.526;30.792;2023-04-22T05:54:48;99063.38;;;13.89;42.50
73105;BME280;61296;50.526;30.792;2023-04-22T06:10:10;98992.66;;;13.50;43.50
73105;BME280;61296;50.526;30.792;2023-04-22T06:25:31;99081.16;;;14.29;44.01
73105;BME280;61296;50.526;30.792;2023-04-22T06:40:51;99030.72;;;14.18;43.34
73105;BME280;61296;50.526;30.792;2023-04-22T06:56:31;99058.47;;;14.44;42.95
73105;BME280;61296;50.526;30.792;2023-04-22T07:11:50;99028.78;;;14.11;42.83
73105;BME280;61296;50.526;30.792;2023-04-22T07:27:14;99018.78;;;13.86;41.07
73105;BME280;61296;50.526;30.792;2023-04-22T07:42:33;99048.09;;;14.18;41.00
73105;BME280;61296;50.526;30.792;2023-04-22T07:57:53;99115.81;;;14.40;38.88
73105;BME280;61296;50.526;30.792;2023-04-22T08:13:12;99136.06;;;14.71;39.43
73105;BME280;61296;50.526;30.792;2023-04-22T08:28:33;99118.97;;;14.80;39.34
73105;BME280;61296;50.526;30.792;2023-04-22T08:43:54;98993.88;;;14.58;36.71
73105;BME280;61296;50.526;30.792;2023-04-22T08:59:17;99019.03;;;14.71;35.54
73105;BME280;61296;50.526;30.792;2023-04-22T09:14:38;99161.16;;;15.79;33.57
73105;BME280;61296;50.526;30.792;2023-04-22T09:29:58;99121.31;;;15.93;31.33
73105;BME280;61296;50.526;30.792;2023-04-22T09:45:27;99104.38;;;16.11;30.19
73105;BME280;61296;50.526;30.792;2023-04-22T10:00:49;99032.81;;;15.32;30.34
73105;BME280;61296;50.526;30.792;2023-04-22T10:16:08;99143.34;;;15.50;29.01
73105;BME280;61296;50.526;30.792;2023-04-22T10:31:36;99038.78;;;15.00;28.16
73105;BME280;61296;50.526;30.792;2023-04-22T10:46:57;99044.97;;;15.38;27.43
73105;BME280;61296;50.526;30.792;2023-04-22T11:02:18;99088.97;;;15.63;28.38
73105;BME280;61296;50.526;30.792;2023-04-22T11:17:41;99169.09;;;16.51;26.79
73105;BME280;61296;50.526;30.792;2023-04-22T11:33:01;99038.00;;;15.53;27.56
73105;BME280;61296;50.526;30.792;2023-04-22T11:48:21;99129.16;;;15.75;27.99
73105;BME280;61296;50.526;30.792;2023-04-22T12:03:42;99176.25;;;16.02;28.58
73105;BME280;61296;50.526;30.792;2023-04-22T12:19:02;99103.59;;;15.64;28.70
73105;BME280;61296;50.526;30.792;2023-04-22T12:34:21;99129.72;;;15.90;28.99
73105;BME280;61296;50.526;30.792;2023-04-22T12:49:41;99178.22;;;16.05;29.82
73105;BME280;61296;50.526;30.792;2023-04-22T13:05:00;99033.34;;;15.47;29.22
73105;BME280;61296;50.526;30.792;2023-04-22T13:20:19;99189.03;;;16.66;29.14
73105;BME280;61296;50.526;30.792;2023-04-22T13:35:42;99148.59;;;16.22;29.54
73105;BME280;61296;50.526;30.792;2023-04-22T13:51:01;99065.16;;;15.66;30.22
73105;BME280;61296;50.526;30.792;2023-04-22T14:06:21;99110.72;;;15.88;29.80
73105;BME280;61296;50.526;30.792;2023-04-22T14:21:40;99061.31;;;15.56;30.63
73105;BME280;61296;50.526;30.792;2023-04-22T14:36:59;99087.88;;;15.80;30.65
73105;BME280;61296;50.526;30.792;2023-04-22T14:52:19;99179.94;;;16.42;30.50
73105;BME280;61296;50.526;30.792;2023-04-22T15:07:38;99140.25;;;15.75;30.68
73105;BME280;61296;50.526;30.792;2023-04-22T15:23:00;99122.84;;;15.74;31.61
73105;BME280;61296;50.526;30.792;2023-04-22T15:38:23;99129.53;;;15.77;30.37
73105;BME280;61296;50.526;30.792;2023-04-22T15:53:42;99142.91;;;15.82;30.89
73105;BME280;61296;50.526;30.792;2023-04-22T16:09:07;99152.31;;;15.88;31.23
73105;BME280;61296;50.526;30.792;2023-04-22T16:24:26;99113.09;;;15.36;32.74
73105;BME280;61296;50.526;30.792;2023-04-22T16:39:46;99111.41;;;15.15;33.06
73105;BME280;61296;50.526;30.792;2023-04-22T16:55:17;99129.78;;;15.01;34.14
73105;BME280;61296;50.526;30.792;2023-04-22T17:10:46;99210.22;;;15.21;34.09
73105;BME280;61296;50.526;30.792;2023-04-22T17:26:10;99206.53;;;14.97;33.50
73105;BME280;61296;50.526;30.792;2023-04-22T17:41:30;99288.50;;;15.29;33.08
73105;BME280;61296;50.526;30.792;2023-04-22T17:56:49;99317.44;;;15.24;34.93
73105;BME280;61296;50.526;30.792;2023-04-22T18:12:09;99239.47;;;14.43;36.60
73105;BME280;61296;50.526;30.792;2023-04-22T18:27:39;99236.59;;;14.06;36.70
73105;BME280;61296;50.526;30.792;2023-04-22T18:43:02;99236.31;;;13.90;36.71
73105;BME280;61296;50.526;30.792;2023-04-22T18:58:22;99341.00;;;14.54;35.24
73105;BME280;61296;50.526;30.792;2023-04-22T19:13:41;99274.28;;;14.44;34.59
73105;BME280;61296;50.526;30.792;2023-04-22T19:29:01;99387.78;;;14.89;35.62
73105;BME280;61296;50.526;30.792;2023-04-22T19:44:27;99306.56;;;13.96;37.90
73105;BME280;61296;50.526;30.792;2023-04-22T19:59:47;99345.31;;;13.89;37.13
73105;BME280;61296;50.526;30.792;2023-04-22T20:15:07;99381.22;;;13.96;38.61
73105;BME280;61296;50.526;30.792;2023-04-22T20:30:26;99334.09;;;13.22;41.42
73105;BME280;61296;50.526;30.792;2023-04-22T20:45:46;99287.59;;;12.60;42.15
73105;BME280;61296;50.526;30.792;2023-04-22T21:01:09;99401.53;;;13.14;41.59
73105;BME280;61296;50.526;30.792;2023-04-22T21:16:29;99410.19;;;13.13;41.14
73105;BME280;61296;50.526;30.792;2023-04-22T21:31:49;99324.25;;;12.79;39.87
73105;BME280;61296;50.526;30.792;2023-04-22T21:47:09;99395.59;;;13.34;39.75
73105;BME280;61296;50.526;30.792;2023-04-22T22:02:29;99338.44;;;12.98;39.49
73105;BME280;61296;50.526;30.792;2023-04-22T22:17:49;99422.44;;;13.08;40.47
73105;BME280;61296;50.526;30.792;2023-04-22T22:33:10;99406.25;;;12.82;43.00
73105;BME280;61296;50.526;30.792;2023-04-22T22:48:29;99414.13;;;12.51;44.23
73105;BME280;61296;50.526;30.792;2023-04-22T23:03:49;99270.00;;;11.32;45.87
73105;BME280;61296;50.526;30.792;2023-04-22T23:19:09;99370.78;;;11.54;47.92
73105;BME280;61296;50.526;30.792;2023-04-22T23:34:30;99418.13;;;11.74;49.13
73105;BME280;61296;50.526;30.792;2023-04-22T23:49:51;99429.53;;;11.72;50.62
